Time;durP1;ratioP1;P1;durP2;ratioP2;P2;SDS_P1;SDS_P2;PMS_P1;PMS_P2;Temp;Humidity;BMP_temperature;BMP_pressure;BME280_temperature;BME280_humidity;BME280_pressure;Samples;Min_cycle;Max_cycle;Signal;HPM_P1;HPM_P2
2021/08/28 04:04:38;;;;;;;21.55;5.07;;;;;;;;;;5045307;28;20120;-90
2021/08/28 04:07:03;;;;;;;18.20;6.10;;;;;;;;;;5018674;28;20045;-91
2021/08/28 04:09:29;;;;;;;19.40;5.53;;;;;;;;;;5020494;28;20029;-91
2021/08/28 04:11:54;;;;;;;21.50;5.88;;;;;;;;;;5020419;28;20033;-88
2021/08/28 04:14:20;;;;;;;14.32;5.25;;;;;;;;;;5032060;28;20468;-88
2021/08/28 04:16:48;;;;;;;17.45;5.15;;;;;;;;;;5028594;28;20028;-88
2021/08/28 04:19:20;;;;;;;26.95;4.80;;;;;;;;;;5036447;28;20033;-88
2021/08/28 04:21:45;;;;;;;14.27;5.00;;;;;;;;;;5018448;28;20035;-87
2021/08/28 04:24:11;;;;;;;21.10;5.07;;;;;;;;;;5014666;28;20466;-90
2021/08/28 04:26:49;;;;;;;19.25;4.82;;;;;;;;;;5017127;28;20502;-88
2021/08/28 04:29:15;;;;;;;15.15;4.55;;;;;;;;;;5033421;28;20032;-90
2021/08/28 04:31:43;;;;;;;18.80;5.18;;;;;;;;;;5050185;28;20021;-90
2021/08/28 04:34:15;;;;;;;14.13;4.10;;;;;;;;;;5048540;28;20033;-87
2021/08/28 04:36:42;;;;;;;17.55;4.90;;;;;;;;;;5030730;28;20032;-88
2021/08/28 04:39:07;;;;;;;18.42;5.38;;;;;;;;;;5051518;28;20121;-92
2021/08/28 04:41:43;;;;;;;18.60;4.47;;;;;;;;;;5045110;28;20488;-88
2021/08/28 04:44:08;;;;;;;13.85;4.75;;;;;;;;;;5035577;28;20056;-88
2021/08/28 04:46:33;;;;;;;11.82;4.53;;;;;;;;;;5034364;28;20033;-89
2021/08/28 04:49:08;;;;;;;14.32;4.68;;;;;;;;;;5020495;28;20041;-87
2021/08/28 04:51:44;;;;;;;15.32;4.43;;;;;;;;;;5054578;28;20033;-87
2021/08/28 04:57:47;;;;;;;20.75;5.15;;;;;;;;;;5049217;28;20116;-89
2021/08/28 05:00:15;;;;;;;11.52;5.32;;;;;;;;;;5034419;28;20033;-90
2021/08/28 05:02:42;;;;;;;21.55;4.60;;;;;;;;;;5048093;28;20025;-89
2021/08/28 05:05:11;;;;;;;12.68;4.47;;;;;;;;;;5032899;28;20120;-90
2021/08/28 05:07:36;;;;;;;10.65;4.10;;;;;;;;;;5014110;28;20055;-90
2021/08/28 05:10:03;;;;;;;9.45;3.90;;;;;;;;;;5026009;28;20052;-88
2021/08/28 05:12:30;;;;;;;12.10;3.83;;;;;;;;;;5026275;28;20075;-87
2021/08/28 05:14:55;;;;;;;8.07;4.35;;;;;;;;;;5025575;28;20025;-88
2021/08/28 05:17:21;;;;;;;12.43;4.10;;;;;;;;;;5015895;28;20044;-90
2021/08/28 05:19:46;;;;;;;21.20;5.10;;;;;;;;;;5031065;28;20039;-88
2021/08/28 05:22:12;;;;;;;9.07;4.15;;;;;;;;;;5032320;28;20441;-88
2021/08/28 05:24:38;;;;;;;12.93;4.22;;;;;;;;;;5045439;28;20029;-87
2021/08/28 05:27:24;;;;;;;11.95;4.30;;;;;;;;;;5015331;28;20037;-88
2021/08/28 05:29:52;;;;;;;15.95;4.30;;;;;;;;;;5041852;28;20084;-89
2021/08/28 05:32:22;;;;;;;12.50;4.40;;;;;;;;;;5012938;28;20022;-85
2021/08/28 05:34:51;;;;;;;15.93;5.03;;;;;;;;;;5019045;28;20029;-87
2021/08/28 05:37:53;;;;;;;12.70;3.72;;;;;;;;;;5008967;28;20065;-87
2021/08/28 05:40:20;;;;;;;15.55;4.80;;;;;;;;;;4998321;28;20034;-87
2021/08/28 05:42:57;;;;;;;14.63;4.47;;;;;;;;;;4994698;28;20089;-90
2021/08/28 05:45:24;;;;;;;18.15;4.50;;;;;;;;;;4989435;28;20092;-87
2021/08/28 05:47:50;;;;;;;23.27;4.18;;;;;;;;;;4977570;28;20045;-89
2021/08/28 05:50:16;;;;;;;12.15;4.03;;;;;;;;;;4995380;28;20103;-90
2021/08/28 05:52:42;;;;;;;16.00;4.68;;;;;;;;;;5013992;28;20030;-85
2021/08/28 05:55:13;;;;;;;10.18;3.97;;;;;;;;;;5019282;28;20070;-88
2021/08/28 05:57:56;;;;;;;9.75;4.25;;;;;;;;;;5019737;28;20117;-90
2021/08/28 06:00:29;;;;;;;12.65;4.10;;;;;;;;;;5016785;28;20157;-87
2021/08/28 06:02:54;;;;;;;15.63;3.67;;;;;;;;;;4982924;28;20133;-87
2021/08/28 06:05:20;;;;;;;14.30;4.05;;;;;;;;;;5013008;28;20399;-89
2021/08/28 06:07:49;;;;;;;15.75;3.90;;;;;;;;;;5001882;28;20128;-86
2021/08/28 06:10:15;;;;;;;13.50;4.50;;;;;;;;;;5022772;28;20042;-88
2021/08/28 06:12:43;;;;;;;10.65;3.80;;;;;;;;;;5003556;28;20030;-87
2021/08/28 06:15:35;;;;;;;10.38;4.00;;;;;;;;;;4965729;28;20373;-88
2021/08/28 06:18:01;;;;;;;10.85;3.70;;;;;;;;;;4979248;28;20110;-88
2021/08/28 06:20:27;;;;;;;14.00;3.90;;;;;;;;;;4976182;28;20038;-87
2021/08/28 06:22:55;;;;;;;9.07;3.58;;;;;;;;;;4962460;28;20046;-88
2021/08/28 06:25:21;;;;;;;9.48;3.50;;;;;;;;;;4962012;28;20042;-87
2021/08/28 06:27:46;;;;;;;6.07;3.65;;;;;;;;;;4988368;28;20058;-88
2021/08/28 06:30:37;;;;;;;12.93;3.45;;;;;;;;;;4995424;28;20726;-88
2021/08/28 06:33:03;;;;;;;11.05;3.40;;;;;;;;;;4997914;28;20073;-89
2021/08/28 06:35:28;;;;;;;8.95;3.55;;;;;;;;;;5000905;28;20030;-86
2021/08/28 06:38:00;;;;;;;5.25;3.03;;;;;;;;;;4997691;28;20066;-87
2021/08/28 06:40:26;;;;;;;14.95;3.90;;;;;;;;;;4987263;28;20069;-88
2021/08/28 06:42:56;;;;;;;7.90;3.92;;;;;;;;;;4997229;28;22631;-89
2021/08/28 06:45:34;;;;;;;14.25;4.00;;;;;;;;;;5005100;28;20158;-89
2021/08/28 06:48:07;;;;;;;7.53;3.47;;;;;;;;;;5036954;28;20033;-90
2021/08/28 06:50:33;;;;;;;9.25;3.70;;;;;;;;;;5023592;28;20041;-90
2021/08/28 06:52:58;;;;;;;5.80;3.15;;;;;;;;;;5049076;28;20047;-88
2021/08/28 06:55:27;;;;;;;6.22;3.40;;;;;;;;;;5022494;28;20033;-91
2021/08/28 06:57:55;;;;;;;6.18;3.20;;;;;;;;;;5007646;28;20025;-87
2021/08/28 07:00:21;;;;;;;8.45;3.88;;;;;;;;;;5023645;28;20368;-89
2021/08/28 07:02:52;;;;;;;9.13;4.38;;;;;;;;;;5025088;28;20029;-90
2021/08/28 07:05:21;;;;;;;6.25;3.15;;;;;;;;;;5049471;28;20046;-91
2021/08/28 07:07:47;;;;;;;5.43;3.10;;;;;;;;;;5034889;28;20146;-88
2021/08/28 07:10:22;;;;;;;12.38;3.95;;;;;;;;;;5031500;28;20033;-85
2021/08/28 07:12:48;;;;;;;6.20;3.05;;;;;;;;;;5018664;28;20025;-87
2021/08/28 07:15:17;;;;;;;3.88;2.60;;;;;;;;;;5040498;28;20031;-87
2021/08/28 07:17:42;;;;;;;11.88;3.10;;;;;;;;;;5018208;28;20021;-89
2021/08/28 07:20:08;;;;;;;5.47;3.15;;;;;;;;;;5027834;28;20032;-88
2021/08/28 07:22:43;;;;;;;7.53;2.85;;;;;;;;;;5012297;28;20017;-91
2021/08/28 07:25:11;;;;;;;13.68;2.88;;;;;;;;;;5014794;28;20119;-87
2021/08/28 07:27:42;;;;;;;7.05;3.10;;;;;;;;;;5039417;28;20117;-85
2021/08/28 07:30:09;;;;;;;9.95;2.90;;;;;;;;;;5047768;28;20677;-86
2021/08/28 07:32:42;;;;;;;11.25;2.83;;;;;;;;;;5036969;28;20403;-89
2021/08/28 07:35:08;;;;;;;5.22;2.55;;;;;;;;;;5038341;28;20045;-90
2021/08/28 07:37:36;;;;;;;10.60;3.13;;;;;;;;;;5035873;28;20029;-86
2021/08/28 07:40:06;;;;;;;7.07;2.13;;;;;;;;;;5037653;28;20036;-90
2021/08/28 07:42:32;;;;;;;7.97;2.33;;;;;;;;;;5051927;28;20072;-86
2021/08/28 07:45:00;;;;;;;7.93;2.00;;;;;;;;;;5031282;28;20044;-89
2021/08/28 07:47:28;;;;;;;8.02;2.40;;;;;;;;;;5018890;28;20040;-89
2021/08/28 07:50:14;;;;;;;8.55;2.80;;;;;;;;;;5011950;28;20046;-86
2021/08/28 07:52:42;;;;;;;8.30;3.15;;;;;;;;;;5030996;28;20652;-89
2021/08/28 07:55:16;;;;;;;9.98;2.50;;;;;;;;;;5025198;28;20038;-85
2021/08/28 07:57:41;;;;;;;5.05;2.30;;;;;;;;;;5039704;28;20097;-89
2021/08/28 08:00:17;;;;;;;11.07;2.10;;;;;;;;;;5006057;28;21178;-88
2021/08/28 08:02:42;;;;;;;8.85;2.33;;;;;;;;;;5037792;28;20057;-89
2021/08/28 08:05:08;;;;;;;4.88;1.75;;;;;;;;;;5005105;28;20041;-88
2021/08/28 08:07:37;;;;;;;6.53;1.80;;;;;;;;;;5026858;28;20344;-88
2021/08/28 08:10:03;;;;;;;4.72;1.50;;;;;;;;;;5008527;28;20088;-88
2021/08/28 08:12:30;;;;;;;10.02;1.95;;;;;;;;;;5017932;28;20264;-90
2021/08/28 08:14:56;;;;;;;5.40;1.83;;;;;;;;;;4997897;28;20030;-89
2021/08/28 08:17:53;;;;;;;7.43;1.40;;;;;;;;;;4999686;28;20029;-88
2021/08/28 08:20:28;;;;;;;6.25;1.65;;;;;;;;;;5011386;28;20029;-90
2021/08/28 08:22:54;;;;;;;13.38;1.48;;;;;;;;;;5036093;28;20109;-90
2021/08/28 08:25:29;;;;;;;3.05;1.30;;;;;;;;;;5031260;28;20049;-85
2021/08/28 08:27:58;;;;;;;5.80;1.55;;;;;;;;;;5042693;28;20033;-87
2021/08/28 08:30:32;;;;;;;5.88;1.25;;;;;;;;;;5017639;28;20068;-87
2021/08/28 08:32:57;;;;;;;6.65;1.70;;;;;;;;;;5032852;28;20041;-89
2021/08/28 08:35:52;;;;;;;5.10;2.10;;;;;;;;;;5019272;28;20025;-92
2021/08/28 08:38:19;;;;;;;8.27;1.50;;;;;;;;;;5040855;28;20033;-86
2021/08/28 08:41:17;;;;;;;3.03;1.38;;;;;;;;;;5030147;28;20034;-91
2021/08/28 08:43:42;;;;;;;3.72;1.33;;;;;;;;;;5046434;28;20033;-88
2021/08/28 08:46:26;;;;;;;10.20;1.60;;;;;;;;;;5032212;28;20131;-87
2021/08/28 08:49:00;;;;;;;6.78;1.55;;;;;;;;;;5032744;28;20033;-89
2021/08/28 08:51:38;;;;;;;3.83;1.67;;;;;;;;;;5024865;28;20028;-87
2021/08/28 08:54:04;;;;;;;5.43;1.08;;;;;;;;;;5055804;28;20083;-90
2021/08/28 08:56:40;;;;;;;2.88;0.98;;;;;;;;;;5053237;28;20072;-92
2021/08/28 08:59:06;;;;;;;5.35;1.00;;;;;;;;;;5033248;28;20462;-88
2021/08/28 09:01:32;;;;;;;2.45;1.17;;;;;;;;;;5031733;28;20017;-88
2021/08/28 09:04:07;;;;;;;2.10;1.23;;;;;;;;;;5035610;28;20094;-89
2021/08/28 09:06:33;;;;;;;2.00;0.95;;;;;;;;;;5055470;28;20060;-88
2021/08/28 09:09:02;;;;;;;1.52;0.82;;;;;;;;;;5045072;28;20021;-88
2021/08/28 09:11:34;;;;;;;1.45;0.93;;;;;;;;;;5055419;28;20089;-88
2021/08/28 09:14:16;;;;;;;4.63;1.40;;;;;;;;;;5031058;28;20049;-86
2021/08/28 09:16:51;;;;;;;4.45;1.20;;;;;;;;;;5046918;28;20025;-88
2021/08/28 09:19:16;;;;;;;5.18;1.15;;;;;;;;;;5045867;28;20063;-90
2021/08/28 09:21:59;;;;;;;4.22;0.98;;;;;;;;;;5022429;28;20049;-89
2021/08/28 09:24:40;;;;;;;2.95;1.00;;;;;;;;;;5057596;28;20029;-89
2021/08/28 09:27:09;;;;;;;2.92;1.02;;;;;;;;;;5038212;28;20021;-89
2021/08/28 09:29:40;;;;;;;4.57;1.00;;;;;;;;;;5039733;28;20017;-89
2021/08/28 09:35:08;;;;;;;3.15;1.02;;;;;;;;;;5048157;28;20052;-89
2021/08/28 09:38:35;;;;;;;4.57;1.20;;;;;;;;;;5035166;28;20103;-90
2021/08/28 09:40:41;;;;;;;3.78;0.88;;;;;;;;;;5042873;28;20095;-90
2021/08/28 09:43:24;;;;;;;5.78;1.20;;;;;;;;;;5034950;28;20040;-91
2021/08/28 09:45:51;;;;;;;4.25;1.40;;;;;;;;;;5014213;28;20017;-90
2021/08/28 09:48:41;;;;;;;7.88;1.20;;;;;;;;;;5046977;28;20035;-88
2021/08/28 09:51:08;;;;;;;2.70;0.98;;;;;;;;;;5035676;28;20040;-91
2021/08/28 09:54:00;;;;;;;2.78;1.05;;;;;;;;;;5028745;28;20100;-91
2021/08/28 09:56:27;;;;;;;3.28;1.05;;;;;;;;;;5029048;28;20080;-89
2021/08/28 09:58:52;;;;;;;4.63;1.52;;;;;;;;;;5035638;28;20037;-89
2021/08/28 10:01:26;;;;;;;5.28;2.42;;;;;;;;;;5049620;28;20309;-90
2021/08/28 10:04:18;;;;;;;6.88;1.20;;;;;;;;;;5027221;28;20048;-92
2021/08/28 10:07:11;;;;;;;4.13;0.90;;;;;;;;;;5038228;28;20032;-89
2021/08/28 10:09:37;;;;;;;8.23;0.98;;;;;;;;;;5019921;28;20044;-86
2021/08/28 10:12:08;;;;;;;10.82;0.75;;;;;;;;;;5035966;28;20025;-87
2021/08/28 10:15:02;;;;;;;;;;;;;;;;;;;;;
2021/08/28 10:17:30;;;;;;;;;;;;;;;;;;5048060;28;20467;-87
2021/08/28 10:19:56;;;;;;;2.95;0.93;;;;;;;;;;5044188;28;19929;-91
2021/08/28 10:22:57;;;;;;;4.95;0.98;;;;;;;;;;5048765;28;20091;-90
2021/08/28 10:25:27;;;;;;;3.15;1.05;;;;;;;;;;5035391;28;20033;-91
2021/08/28 10:27:57;;;;;;;3.17;1.05;;;;;;;;;;5034925;28;20052;-91
2021/08/28 10:30:42;;;;;;;3.38;0.90;;;;;;;;;;5014649;28;20061;-87
2021/08/28 10:33:08;;;;;;;4.18;1.00;;;;;;;;;;5017265;28;20055;-91
2021/08/28 10:35:41;;;;;;;4.22;1.13;;;;;;;;;;5019132;28;20182;-89
2021/08/28 10:38:20;;;;;;;6.30;0.88;;;;;;;;;;5036160;28;20082;-85
2021/08/28 10:41:06;;;;;;;2.92;0.70;;;;;;;;;;5017998;28;20038;-88
2021/08/28 10:43:34;;;;;;;3.85;0.88;;;;;;;;;;5023620;28;20038;-88
2021/08/28 10:46:15;;;;;;;2.90;0.82;;;;;;;;;;4992565;28;20526;-90
2021/08/28 10:48:55;;;;;;;4.68;0.80;;;;;;;;;;5014495;28;20029;-90
2021/08/28 10:51:33;;;;;;;4.10;1.17;;;;;;;;;;4999079;28;20046;-88
2021/08/28 10:54:15;;;;;;;4.00;0.90;;;;;;;;;;5024596;28;20049;-90
2021/08/28 10:57:10;;;;;;;3.10;1.02;;;;;;;;;;5029011;28;20031;-86
2021/08/28 10:59:39;;;;;;;1.77;0.70;;;;;;;;;;5019519;28;20017;-87
2021/08/28 11:02:16;;;;;;;4.65;0.70;;;;;;;;;;5031592;28;20040;-89
2021/08/28 11:04:53;;;;;;;5.93;1.25;;;;;;;;;;5017548;28;20049;-86
2021/08/28 11:07:41;;;;;;;6.00;0.98;;;;;;;;;;5030989;28;20065;-88
2021/08/28 11:10:14;;;;;;;3.50;1.00;;;;;;;;;;5018344;28;20026;-87
2021/08/28 11:12:57;;;;;;;5.53;1.25;;;;;;;;;;5048432;28;20143;-89
2021/08/28 11:15:34;;;;;;;4.03;0.90;;;;;;;;;;5058598;28;20040;-90
2021/08/28 11:18:01;;;;;;;5.00;1.20;;;;;;;;;;5041256;28;20037;-90
2021/08/28 11:20:50;;;;;;;;;;;;;;;;;;;;;
2021/08/28 11:23:24;;;;;;;2.35;0.90;;;;;;;;;;5047485;28;20035;-89
2021/08/28 11:25:59;;;;;;;2.50;0.80;;;;;;;;;;5045168;28;20009;-90
2021/08/28 11:28:43;;;;;;;2.90;1.17;;;;;;;;;;5039852;28;20037;-88
2021/08/28 11:31:19;;;;;;;;;;;;;;;;;;;;;
2021/08/28 11:34:08;;;;;;;6.38;1.05;;;;;;;;;;5013975;28;20567;-94
2021/08/28 11:36:48;;;;;;;3.70;0.95;;;;;;;;;;5005956;28;20116;-88
2021/08/28 11:39:26;;;;;;;6.00;0.90;;;;;;;;;;4991918;28;20054;-88
2021/08/28 11:41:51;;;;;;;3.45;0.90;;;;;;;;;;4995969;28;20071;-91
2021/08/28 11:44:17;;;;;;;2.65;1.00;;;;;;;;;;5001756;28;20045;-89
2021/08/28 11:46:48;;;;;;;2.38;0.93;;;;;;;;;;5017182;28;20121;-89
2021/08/28 11:49:16;;;;;;;5.13;0.80;;;;;;;;;;4986969;28;20041;-90
2021/08/28 11:51:42;;;;;;;1.63;0.73;;;;;;;;;;5013525;28;20148;-90
2021/08/28 11:54:20;;;;;;;5.57;0.70;;;;;;;;;;5013296;28;20049;-91
2021/08/28 11:57:05;;;;;;;;;;;;;;;;;;;;;
2021/08/28 11:59:43;;;;;;;2.63;0.77;;;;;;;;;;5020188;28;20919;-89
2021/08/28 12:02:22;;;;;;;2.80;0.50;;;;;;;;;;5006645;28;20277;-85
2021/08/28 12:04:48;;;;;;;1.23;0.75;;;;;;;;;;5017681;28;20029;-88
2021/08/28 12:07:24;;;;;;;0.73;0.40;;;;;;;;;;5026008;28;20026;-87
2021/08/28 12:10:07;;;;;;;6.32;0.80;;;;;;;;;;5021175;28;20059;-90
2021/08/28 12:12:42;;;;;;;2.45;0.93;;;;;;;;;;5017451;28;20033;-92
2021/08/28 12:15:19;;;;;;;2.30;0.93;;;;;;;;;;5025203;28;20050;-88
2021/08/28 12:17:51;;;;;;;3.03;0.80;;;;;;;;;;5015053;28;20010;-85
2021/08/28 12:20:23;;;;;;;2.33;1.08;;;;;;;;;;5032075;28;20095;-92
2021/08/28 12:23:01;;;;;;;3.35;0.82;;;;;;;;;;5028191;28;20025;-90
2021/08/28 12:25:27;;;;;;;4.63;1.10;;;;;;;;;;5027210;28;20033;-94
2021/08/28 12:27:54;;;;;;;2.40;0.90;;;;;;;;;;5024520;28;20071;-85
2021/08/28 12:30:24;;;;;;;2.22;1.00;;;;;;;;;;5023989;28;20028;-88
2021/08/28 12:32:52;;;;;;;2.35;1.00;;;;;;;;;;5024367;28;20021;-87
2021/08/28 12:35:38;;;;;;;2.28;0.90;;;;;;;;;;5033224;28;20021;-87
2021/08/28 12:38:13;;;;;;;3.50;0.93;;;;;;;;;;5018458;28;20345;-89
2021/08/28 12:40:42;;;;;;;1.00;0.73;;;;;;;;;;5007965;28;20037;-88
2021/08/28 12:43:14;;;;;;;1.42;0.70;;;;;;;;;;5024412;28;20561;-90
2021/08/28 12:45:42;;;;;;;1.50;0.63;;;;;;;;;;5061007;28;20214;-87
2021/08/28 12:48:26;;;;;;;1.08;0.70;;;;;;;;;;5056150;28;20031;-90
2021/08/28 12:51:07;;;;;;;2.55;0.80;;;;;;;;;;5031615;28;20028;-89
2021/08/28 12:53:38;;;;;;;5.45;0.65;;;;;;;;;;5035529;28;20087;-88
2021/08/28 12:56:07;;;;;;;0.63;0.50;;;;;;;;;;5044766;28;20036;-92
2021/08/28 12:58:38;;;;;;;3.13;0.90;;;;;;;;;;5031997;28;20037;-88
2021/08/28 13:01:41;;;;;;;1.90;1.30;;;;;;;;;;5007729;28;20033;-91
2021/08/28 13:04:30;;;;;;;;;;;;;;;;;;;;;
2021/08/28 13:07:24;;;;;;;2.78;1.05;;;;;;;;;;5052969;28;20113;-88
2021/08/28 13:10:07;;;;;;;2.90;0.70;;;;;;;;;;5051935;28;20037;-91
2021/08/28 13:13:02;;;;;;;2.03;0.73;;;;;;;;;;5056063;28;20030;-89
2021/08/28 13:15:29;;;;;;;8.77;1.10;;;;;;;;;;5053294;28;20060;-88
2021/08/28 13:18:28;;;;;;;;;;;;;;;;;;;;;
2021/08/28 13:21:56;;;;;;;;;;;;;;;;;;;;;
2021/08/28 13:28:18;;;;;;;3.17;0.80;;;;;;;;;;4889351;29;20136;-87
2021/08/28 13:31:16;;;;;;;3.17;0.98;;;;;;;;;;4927598;29;20081;-91
2021/08/28 13:34:11;;;;;;;4.78;1.13;;;;;;;;;;4922080;29;20067;-92
2021/08/28 13:36:40;;;;;;;3.08;0.82;;;;;;;;;;4934693;29;20184;-91
2021/08/28 13:39:33;;;;;;;2.15;0.88;;;;;;;;;;4942131;28;20042;-87
2021/08/28 13:42:02;;;;;;;2.65;1.00;;;;;;;;;;4934441;29;20126;-87
2021/08/28 13:44:48;;;;;;;2.13;0.80;;;;;;;;;;4937769;28;20069;-87
2021/08/28 13:51:21;;;;;;;3.58;1.23;;;;;;;;;;4955878;28;20039;-87
2021/08/28 13:53:47;;;;;;;5.75;1.23;;;;;;;;;;5036867;28;20056;-90
2021/08/28 13:56:12;;;;;;;5.53;1.00;;;;;;;;;;5000737;28;20175;-90
2021/08/28 13:58:45;;;;;;;2.67;0.98;;;;;;;;;;5027070;28;20033;-90
2021/08/28 14:01:43;;;;;;;3.65;1.10;;;;;;;;;;5020202;28;20041;-89
2021/08/28 14:04:18;;;;;;;5.82;1.10;;;;;;;;;;5017599;28;20056;-90
2021/08/28 14:10:12;;;;;;;4.57;0.85;;;;;;;;;;5024918;28;20068;-90
2021/08/28 14:12:38;;;;;;;4.63;1.00;;;;;;;;;;5038829;28;20043;-89
2021/08/28 14:15:09;;;;;;;6.10;1.55;;;;;;;;;;5035579;28;20088;-89
2021/08/28 14:17:35;;;;;;;5.40;1.08;;;;;;;;;;5024277;28;20032;-89
2021/08/28 14:20:33;;;;;;;3.67;1.48;;;;;;;;;;5059917;28;20048;-87
2021/08/28 14:22:59;;;;;;;4.40;1.35;;;;;;;;;;5038402;28;20056;-88
2021/08/28 14:25:42;;;;;;;3.70;1.27;;;;;;;;;;5051972;28;20117;-88
2021/08/28 14:28:27;;;;;;;;;;;;;;;;;;;;;
2021/08/28 14:31:02;;;;;;;8.07;1.92;;;;;;;;;;5066909;28;20052;-86
2021/08/28 14:33:28;;;;;;;3.30;1.30;;;;;;;;;;5033710;28;20520;-87
2021/08/28 14:36:06;;;;;;;3.58;1.00;;;;;;;;;;5035199;28;20108;-86
2021/08/28 14:46:20;;;;;;;12.95;1.90;;;;;;;;;;4974463;28;20222;-87
2021/08/28 14:49:13;;;;;;;8.00;1.50;;;;;;;;;;5047638;28;20219;-87
2021/08/28 14:52:05;;;;;;;9.10;1.58;;;;;;;;;;5045509;28;20036;-89
2021/08/28 14:54:30;;;;;;;4.72;1.42;;;;;;;;;;5045615;28;20020;-89
2021/08/28 14:57:02;;;;;;;5.65;1.00;;;;;;;;;;5038229;28;20029;-89
2021/08/28 14:59:30;;;;;;;2.78;1.20;;;;;;;;;;5037993;28;20103;-91
2021/08/28 15:01:56;;;;;;;3.60;1.48;;;;;;;;;;5037213;28;20116;-91
2021/08/28 15:08:20;;;;;;;5.85;0.90;;;;;;;;;;4962034;28;20113;-90
2021/08/28 15:10:45;;;;;;;7.45;1.33;;;;;;;;;;4973081;28;20133;-91
2021/08/28 15:13:25;;;;;;;3.42;1.40;;;;;;;;;;5029112;28;20144;-89
2021/08/28 15:15:58;;;;;;;4.70;1.00;;;;;;;;;;5034227;28;20029;-91
2021/08/28 15:18:27;;;;;;;3.03;1.20;;;;;;;;;;5029786;28;20032;-90
2021/08/28 15:20:58;;;;;;;3.15;1.35;;;;;;;;;;5034220;28;20093;-88
2021/08/28 15:23:27;;;;;;;;;;;;;;;;;;5030201;28;20045;-89
2021/08/28 15:25:56;;;;;;;6.10;0.98;;;;;;;;;;5030348;28;19947;-88
2021/08/28 15:28:22;;;;;;;3.00;1.20;;;;;;;;;;5038259;28;20066;-88
2021/08/28 15:30:47;;;;;;;6.10;1.73;;;;;;;;;;5016263;28;20044;-88
2021/08/28 15:33:14;;;;;;;5.00;1.40;;;;;;;;;;5035638;28;20404;-88
2021/08/28 15:35:39;;;;;;;3.50;1.60;;;;;;;;;;5034281;28;20435;-89
2021/08/28 15:38:04;;;;;;;4.97;1.30;;;;;;;;;;5014134;28;20116;-87
2021/08/28 15:40:31;;;;;;;5.30;1.63;;;;;;;;;;5031271;28;20040;-89
2021/08/28 15:42:56;;;;;;;8.88;1.55;;;;;;;;;;5029000;28;20095;-85
2021/08/28 15:45:22;;;;;;;3.65;1.38;;;;;;;;;;5018128;28;20060;-85
2021/08/28 15:47:47;;;;;;;3.10;1.40;;;;;;;;;;5050775;28;20122;-85
2021/08/28 15:50:14;;;;;;;4.53;1.38;;;;;;;;;;5026897;28;20044;-91
2021/08/28 15:52:41;;;;;;;3.38;1.20;;;;;;;;;;5036995;28;20525;-86
2021/08/28 15:55:07;;;;;;;4.63;0.93;;;;;;;;;;5025562;28;20065;-87
2021/08/28 15:57:33;;;;;;;2.30;1.10;;;;;;;;;;5012099;28;20084;-88
2021/08/28 16:00:08;;;;;;;2.17;1.20;;;;;;;;;;5026168;28;20076;-86
2021/08/28 16:02:33;;;;;;;4.85;1.20;;;;;;;;;;5038757;28;20233;-86
2021/08/28 16:05:06;;;;;;;4.90;1.40;;;;;;;;;;5036706;28;20064;-86
2021/08/28 16:07:32;;;;;;;7.68;1.08;;;;;;;;;;5036189;28;20041;-87
2021/08/28 16:09:59;;;;;;;2.95;0.90;;;;;;;;;;5033430;28;20025;-87
2021/08/28 16:12:27;;;;;;;2.88;0.95;;;;;;;;;;5039016;28;20029;-86
2021/08/28 16:14:57;;;;;;;5.05;1.50;;;;;;;;;;5039853;28;20017;-85
2021/08/28 16:17:23;;;;;;;5.32;1.35;;;;;;;;;;5010558;28;20105;-88
2021/08/28 16:19:50;;;;;;;5.38;1.33;;;;;;;;;;5023280;28;20010;-87
2021/08/28 16:22:16;;;;;;;4.10;1.45;;;;;;;;;;5026906;28;20135;-90
2021/08/28 16:24:45;;;;;;;2.05;1.25;;;;;;;;;;5051019;28;20044;-87
2021/08/28 16:27:11;;;;;;;6.43;1.50;;;;;;;;;;5056007;28;20025;-86
2021/08/28 16:29:41;;;;;;;5.85;1.27;;;;;;;;;;5028349;28;20018;-91
2021/08/28 16:32:09;;;;;;;3.78;0.95;;;;;;;;;;5013219;28;20029;-87
2021/08/28 16:34:35;;;;;;;5.65;1.45;;;;;;;;;;5033050;28;20037;-89
2021/08/28 16:37:00;;;;;;;5.43;1.70;;;;;;;;;;5050973;28;20041;-85
2021/08/28 16:39:26;;;;;;;5.30;2.22;;;;;;;;;;5042814;28;20029;-87
2021/08/28 16:41:51;;;;;;;7.07;1.60;;;;;;;;;;5030207;28;20009;-88
2021/08/28 16:44:17;;;;;;;7.07;1.42;;;;;;;;;;5047344;28;20040;-84
2021/08/28 16:46:46;;;;;;;6.38;1.73;;;;;;;;;;5047683;28;20043;-85
2021/08/28 16:49:12;;;;;;;8.10;2.53;;;;;;;;;;5024890;28;20040;-89
2021/08/28 16:51:38;;;;;;;4.35;1.70;;;;;;;;;;5054155;28;20056;-88
2021/08/28 16:54:07;;;;;;;9.15;1.58;;;;;;;;;;5051250;28;20022;-88
2021/08/28 16:56:33;;;;;;;7.18;1.13;;;;;;;;;;5041124;28;20036;-88
2021/08/28 16:58:58;;;;;;;9.13;1.30;;;;;;;;;;5031129;28;20022;-88
2021/08/28 17:01:23;;;;;;;6.22;1.90;;;;;;;;;;5022314;28;20097;-89
2021/08/28 17:03:57;;;;;;;4.13;1.50;;;;;;;;;;5028068;28;20024;-86
2021/08/28 17:06:22;;;;;;;7.18;1.90;;;;;;;;;;5015220;28;20315;-88
2021/08/28 17:08:48;;;;;;;4.18;1.42;;;;;;;;;;5016671;28;20026;-88
2021/08/28 17:11:15;;;;;;;8.23;1.15;;;;;;;;;;5017419;28;20017;-85
2021/08/28 17:13:43;;;;;;;4.30;1.23;;;;;;;;;;5034180;28;20024;-91
2021/08/28 17:16:08;;;;;;;3.60;1.67;;;;;;;;;;5013194;28;20097;-89
2021/08/28 17:18:34;;;;;;;7.00;1.52;;;;;;;;;;5046973;28;20493;-86
2021/08/28 17:20:59;;;;;;;3.03;1.30;;;;;;;;;;5013357;28;20037;-86
2021/08/28 17:23:28;;;;;;;5.57;1.60;;;;;;;;;;5012992;28;20021;-86
2021/08/28 17:25:56;;;;;;;2.05;1.23;;;;;;;;;;5031874;28;20020;-86
2021/08/28 17:28:28;;;;;;;5.75;2.15;;;;;;;;;;5026827;28;20101;-89
2021/08/28 17:30:54;;;;;;;7.22;2.08;;;;;;;;;;5030400;28;20029;-87
2021/08/28 17:33:20;;;;;;;6.10;1.98;;;;;;;;;;5011227;28;20021;-86
2021/08/28 17:35:45;;;;;;;5.15;2.30;;;;;;;;;;5028469;28;20052;-87
2021/08/28 17:38:11;;;;;;;6.20;2.70;;;;;;;;;;5026130;28;20028;-87
2021/08/28 17:40:39;;;;;;;10.45;2.58;;;;;;;;;;5015594;28;20143;-88
2021/08/28 17:43:20;;;;;;;13.20;2.88;;;;;;;;;;5016314;28;20071;-91
2021/08/28 17:45:46;;;;;;;6.45;2.28;;;;;;;;;;5025011;28;20047;-87
2021/08/28 17:48:11;;;;;;;15.40;2.60;;;;;;;;;;5013051;28;20021;-88
2021/08/28 17:50:37;;;;;;;5.00;2.20;;;;;;;;;;5029725;28;20036;-86
2021/08/28 17:53:02;;;;;;;9.20;2.05;;;;;;;;;;5027882;28;20009;-86
2021/08/28 17:55:28;;;;;;;8.63;2.35;;;;;;;;;;5037955;28;20099;-87
2021/08/28 17:57:54;;;;;;;8.93;2.55;;;;;;;;;;5046544;28;20588;-87
2021/08/28 20:38:11;;;;;;;7.78;2.95;;;;;;;;;;5030564;28;20155;-90
2021/08/28 20:41:24;;;;;;;7.93;2.67;;;;;;;;;;4961065;28;20129;-89
2021/08/28 20:52:37;;;;;;;;;;;;;;;;;;;;;
2021/08/28 21:07:18;;;;;;;11.57;3.28;;;;;;;;;;4914791;29;20116;-87
2021/08/28 21:43:59;;;;;;;8.65;2.97;;;;;;;;;;4788053;29;20078;-91
2021/08/28 22:04:42;;;;;;;13.25;3.15;;;;;;;;;;4859238;29;20024;-91
2021/08/28 22:11:27;;;;;;;;;;;;;;;;;;;;;
2021/08/28 22:26:04;;;;;;;14.63;2.95;;;;;;;;;;4934905;28;20050;-89
2021/08/28 22:49:21;;;;;;;;;;;;;;;;;;;;;
2021/08/28 22:55:18;;;;;;;10.32;3.88;;;;;;;;;;4900284;29;21920;-92
2021/08/28 23:01:48;;;;;;;11.93;3.38;;;;;;;;;;4926697;29;20041;-89
